Time;durP1;ratioP1;P1;durP2;ratioP2;P2;SDS_P1;SDS_P2;PMS_P1;PMS_P2;Temp;Humidity;BMP_temperature;BMP_pressure;BME280_temperature;BME280_humidity;BME280_pressure;Samples;Min_cycle;Max_cycle;Signal;HPM_P1;HPM_P2
2023/08/06 00:02:11;;;;;;;15.98;12.93;;;;;;;22.91;100.00;99020.13;1475998;88;22525;-79
2023/08/06 00:04:38;;;;;;;18.73;12.33;;;;;;;22.83;100.00;99016.58;1471256;87;22270;-80
2023/08/06 00:07:16;;;;;;;;;;;;;;;;;;;;;
2023/08/06 00:13:52;;;;;;;13.13;11.15;;;;;;;22.74;100.00;99010.06;1392891;91;21615;-79
2023/08/06 00:16:18;;;;;;;13.18;11.83;;;;;;;22.65;100.00;99004.36;1399988;93;21428;-79
2023/08/06 00:18:44;;;;;;;16.67;11.28;;;;;;;22.61;100.00;99004.59;1394178;94;21570;-80
2023/08/06 00:21:12;;;;;;;20.35;11.57;;;;;;;22.54;100.00;98993.23;1446936;90;22380;-79
2023/08/06 00:23:39;;;;;;;11.78;10.55;;;;;;;22.53;100.00;98989.73;1390863;94;21480;-80
2023/08/06 00:26:05;;;;;;;15.03;12.05;;;;;;;22.50;100.00;98994.30;1444178;90;21747;-79
2023/08/06 00:28:31;;;;;;;14.55;12.15;;;;;;;22.45;100.00;98978.63;1384733;94;22469;-79
2023/08/06 00:30:58;;;;;;;14.50;10.98;;;;;;;22.41;100.00;98989.13;1438543;90;21531;-78
2023/08/06 00:33:25;;;;;;;17.30;10.10;;;;;;;22.36;100.00;98986.40;1383119;94;21384;-80
2023/08/06 00:35:52;;;;;;;12.33;11.15;;;;;;;22.39;100.00;98988.57;1443032;90;22563;-80
2023/08/06 00:38:18;;;;;;;19.23;11.75;;;;;;;22.38;100.00;98995.02;1382134;94;22521;-80
2023/08/06 00:40:44;;;;;;;15.68;10.72;;;;;;;22.36;100.00;98992.33;1422293;90;22492;-79
2023/08/06 00:43:10;;;;;;;11.73;10.45;;;;;;;22.36;100.00;98990.44;1426625;91;21386;-79
2023/08/06 00:45:37;;;;;;;18.45;10.75;;;;;;;22.34;100.00;98983.14;1421077;91;21539;-81
2023/08/06 00:48:08;;;;;;;13.18;9.73;;;;;;;22.32;100.00;98981.23;1428312;91;21843;-80
2023/08/06 00:50:34;;;;;;;10.65;9.55;;;;;;;22.34;100.00;98979.64;1430751;91;21430;-80
2023/08/06 00:53:01;;;;;;;12.88;9.10;;;;;;;22.37;100.00;98970.48;1425935;91;21513;-80
2023/08/06 00:55:27;;;;;;;14.03;9.93;;;;;;;22.37;100.00;98969.14;1428208;91;21386;-80
2023/08/06 00:57:56;;;;;;;13.20;9.53;;;;;;;22.39;100.00;98968.90;1428999;91;21393;-80
2023/08/06 01:00:24;;;;;;;17.00;10.38;;;;;;;22.37;100.00;98967.80;1424912;91;22264;-80
2023/08/06 01:02:50;;;;;;;11.50;9.20;;;;;;;22.36;100.00;98969.42;1470743;88;22432;-79
2023/08/06 01:05:23;;;;;;;11.75;8.95;;;;;;;22.37;100.00;98970.48;1460896;88;21578;-79
2023/08/06 01:08:03;;;;;;;10.63;9.08;;;;;;;22.35;100.00;98972.63;1473583;87;22001;-80
2023/08/06 01:11:09;;;;;;;12.45;9.20;;;;;;;22.33;100.00;98967.22;1468140;87;21530;-80
2023/08/06 01:13:49;;;;;;;13.95;9.43;;;;;;;22.28;100.00;98958.58;1472534;87;21419;-80
2023/08/06 01:16:20;;;;;;;10.23;8.75;;;;;;;22.26;100.00;98953.98;1557139;87;21325;-81
2023/08/06 01:18:49;;;;;;;9.40;7.50;;;;;;;22.24;100.00;98952.07;1478916;87;22211;-80
2023/08/06 01:21:17;;;;;;;10.53;8.10;;;;;;;22.25;100.00;98952.36;1468455;87;22446;-82
2023/08/06 01:23:44;;;;;;;9.28;8.20;;;;;;;22.25;100.00;98929.46;1475193;87;21382;-82
2023/08/06 01:26:19;;;;;;;11.38;9.15;;;;;;;22.25;100.00;98915.98;1472215;87;22270;-80
2023/08/06 01:29:05;;;;;;;8.75;7.85;;;;;;;22.23;100.00;98904.11;1476178;88;21589;-79
2023/08/06 01:31:36;;;;;;;9.75;8.68;;;;;;;22.24;100.00;98891.44;1489546;87;21464;-79
2023/08/06 01:34:07;;;;;;;12.70;8.33;;;;;;;22.26;100.00;98892.80;1468762;87;22765;-79
2023/08/06 01:36:34;;;;;;;10.48;9.35;;;;;;;22.26;100.00;98902.78;1472836;87;22381;-79
2023/08/06 01:39:01;;;;;;;13.80;7.78;;;;;;;22.26;100.00;98902.78;1472712;88;22395;-77
2023/08/06 01:41:27;;;;;;;12.60;8.58;;;;;;;22.22;100.00;98903.03;1471686;87;21837;-79
2023/08/06 01:43:53;;;;;;;11.85;7.67;;;;;;;22.20;100.00;98919.98;1472299;87;21538;-79
2023/08/06 01:46:19;;;;;;;11.90;8.13;;;;;;;22.17;100.00;98917.28;1476275;87;21441;-79
2023/08/06 01:48:46;;;;;;;10.05;7.92;;;;;;;22.17;100.00;98928.56;1465905;87;22464;-80
2023/08/06 01:51:12;;;;;;;9.53;7.03;;;;;;;22.17;100.00;98935.30;1475863;87;22351;-79
2023/08/06 01:53:38;;;;;;;12.88;7.78;;;;;;;22.20;100.00;98925.38;1476503;87;21530;-80
2023/08/06 01:56:05;;;;;;;9.85;7.40;;;;;;;22.19;100.00;98919.73;1473865;87;21436;-79
2023/08/06 01:58:31;;;;;;;10.45;7.83;;;;;;;22.11;100.00;98907.52;1464302;87;21316;-80
2023/08/06 02:00:57;;;;;;;11.65;8.00;;;;;;;22.09;100.00;98910.45;1479256;87;22477;-80
2023/08/06 02:03:24;;;;;;;13.30;7.90;;;;;;;22.07;100.00;98918.55;1467190;87;22337;-79
2023/08/06 02:05:50;;;;;;;8.53;7.72;;;;;;;22.03;100.00;98907.45;1472014;88;21361;-79
2023/08/06 02:08:16;;;;;;;12.85;7.87;;;;;;;22.05;100.00;98901.83;1468806;87;21435;-79
2023/08/06 02:10:42;;;;;;;9.03;7.33;;;;;;;22.03;100.00;98898.56;1478697;88;21545;-79
2023/08/06 02:13:09;;;;;;;7.42;6.53;;;;;;;21.99;100.00;98903.67;1464801;87;21390;-80
2023/08/06 02:15:35;;;;;;;7.70;6.90;;;;;;;21.96;100.00;98909.58;1468417;88;22175;-80
2023/08/06 02:18:01;;;;;;;7.85;6.70;;;;;;;21.96;100.00;98917.66;1468765;87;22306;-79
2023/08/06 02:20:27;;;;;;;6.97;6.27;;;;;;;21.96;100.00;98909.58;1474168;87;21911;-79
2023/08/06 02:22:53;;;;;;;12.10;6.65;;;;;;;21.95;100.00;98895.84;1467700;87;21497;-79
2023/08/06 02:25:19;;;;;;;7.80;7.03;;;;;;;21.95;100.00;98909.82;1468858;88;21419;-80
2023/08/06 02:27:45;;;;;;;8.00;7.00;;;;;;;21.93;100.00;98902.56;1475624;87;22429;-79
2023/08/06 02:30:11;;;;;;;6.92;5.67;;;;;;;21.87;100.00;98903.05;1473962;87;21338;-79
2023/08/06 02:32:37;;;;;;;9.05;6.20;;;;;;;21.83;100.00;98902.73;1469539;88;21501;-80
2023/08/06 02:35:04;;;;;;;6.75;5.67;;;;;;;21.78;100.00;98907.27;1470203;87;21383;-79
2023/08/06 02:37:32;;;;;;;7.37;5.12;;;;;;;21.74;100.00;98913.71;1475653;88;21398;-80
2023/08/06 02:39:58;;;;;;;12.82;6.17;;;;;;;21.69;100.00;98910.98;1470050;88;21939;-80
2023/08/06 02:42:26;;;;;;;6.70;5.60;;;;;;;21.68;100.00;98913.40;1476058;88;22432;-79
2023/08/06 02:44:58;;;;;;;5.85;4.80;;;;;;;21.71;100.00;98918.81;1471896;88;21368;-78
2023/08/06 02:47:21;;;;;;;5.72;4.92;;;;;;;21.73;100.00;98920.72;1470837;87;21412;-80
2023/08/06 02:49:47;;;;;;;6.45;4.87;;;;;;;21.74;100.00;98929.06;1471420;88;21551;-79
2023/08/06 02:52:14;;;;;;;5.80;4.97;;;;;;;21.81;100.00;98931.02;1474293;88;21442;-80
2023/08/06 02:54:40;;;;;;;5.10;4.47;;;;;;;21.79;100.00;98916.99;1477468;87;21567;-80
2023/08/06 02:57:07;;;;;;;6.90;4.75;;;;;;;21.76;100.00;98926.94;1472833;88;21375;-79
2023/08/06 02:59:33;;;;;;;5.65;5.00;;;;;;;21.67;100.00;98926.59;1462396;88;21501;-79
2023/08/06 03:01:59;;;;;;;8.25;4.97;;;;;;;21.57;100.00;98928.64;1471497;87;21486;-80
2023/08/06 03:04:26;;;;;;;5.20;4.70;;;;;;;21.48;100.00;98922.11;1472155;88;21560;-79
2023/08/06 03:06:52;;;;;;;5.33;4.83;;;;;;;21.39;100.00;98915.58;1468076;87;21420;-79
2023/08/06 03:09:18;;;;;;;6.72;3.95;;;;;;;21.32;100.00;98925.69;1471830;87;21368;-79
2023/08/06 03:11:45;;;;;;;8.78;4.62;;;;;;;21.23;100.00;98931.25;1473227;87;22306;-79
2023/08/06 03:14:11;;;;;;;4.53;3.45;;;;;;;21.15;100.00;98925.27;1470017;87;21316;-79
2023/08/06 03:16:37;;;;;;;5.03;3.75;;;;;;;21.11;100.00;98926.02;1469126;88;21360;-80
2023/08/06 03:19:03;;;;;;;4.10;3.37;;;;;;;21.09;100.00;98924.95;1476628;87;21486;-79
2023/08/06 03:21:29;;;;;;;4.80;3.70;;;;;;;21.07;100.00;98927.06;1472804;87;22285;-79
2023/08/06 03:23:55;;;;;;;5.67;4.25;;;;;;;21.06;100.00;98924.61;1468889;87;21485;-81
2023/08/06 03:26:22;;;;;;;4.97;3.98;;;;;;;21.04;100.00;98916.81;1469192;87;21383;-80
2023/08/06 03:28:48;;;;;;;4.95;4.47;;;;;;;21.01;100.00;98920.02;1471438;87;22387;-79
2023/08/06 03:31:14;;;;;;;7.12;3.30;;;;;;;21.02;100.00;98931.58;1470177;87;21508;-80
2023/08/06 03:33:40;;;;;;;7.42;3.42;;;;;;;21.02;100.00;98936.41;1475922;87;21427;-79
2023/08/06 03:36:07;;;;;;;4.08;3.58;;;;;;;21.00;100.00;98925.09;1483414;87;21516;-80
2023/08/06 03:38:33;;;;;;;5.37;4.15;;;;;;;21.00;100.00;98914.33;1475228;87;21427;-80
2023/08/06 03:41:00;;;;;;;6.87;3.47;;;;;;;21.01;100.00;98905.22;1475890;87;21375;-81
2023/08/06 03:43:26;;;;;;;4.15;3.15;;;;;;;21.00;100.00;98907.61;1475546;87;21353;-81
2023/08/06 03:45:52;;;;;;;3.45;2.60;;;;;;;20.92;100.00;98914.80;1481529;87;22461;-81
2023/08/06 03:48:18;;;;;;;2.95;1.98;;;;;;;20.90;100.00;98918.27;1473168;87;21390;-81
2023/08/06 03:50:45;;;;;;;3.47;2.33;;;;;;;20.86;100.00;98915.78;1462572;88;21294;-81
2023/08/06 03:53:11;;;;;;;2.98;2.60;;;;;;;20.85;100.00;98908.79;1475323;88;21434;-81
2023/08/06 03:55:38;;;;;;;2.55;2.35;;;;;;;20.79;100.00;98888.30;1458033;88;21597;-81
2023/08/06 03:58:04;;;;;;;2.87;2.30;;;;;;;20.77;100.00;98907.89;1470013;88;21286;-80
2023/08/06 04:00:30;;;;;;;2.60;2.40;;;;;;;20.75;100.00;98930.20;1459517;88;21383;-79
2023/08/06 04:02:56;;;;;;;2.65;1.80;;;;;;;20.78;100.00;98933.19;1479439;87;22564;-81
2023/08/06 04:05:22;;;;;;;3.27;2.12;;;;;;;20.72;100.00;98909.47;1469053;88;22362;-81
2023/08/06 04:07:48;;;;;;;5.92;2.42;;;;;;;20.66;100.00;98906.44;1458096;88;21413;-80
2023/08/06 04:14:15;;;;;;;3.58;1.87;;;;;;;20.59;100.00;98904.45;1469804;88;21463;-80
2023/08/06 04:16:42;;;;;;;4.70;1.72;;;;;;;20.52;100.00;98882.31;1476370;88;21338;-81
2023/08/06 04:19:09;;;;;;;4.12;1.90;;;;;;;20.51;100.00;98881.50;1474388;88;21516;-82
2023/08/06 04:21:35;;;;;;;1.92;1.77;;;;;;;20.58;100.00;98882.68;1471862;87;21427;-81
2023/08/06 04:24:02;;;;;;;2.37;2.17;;;;;;;20.53;100.00;98861.11;1470635;88;22411;-81
2023/08/06 04:26:28;;;;;;;2.08;1.55;;;;;;;20.47;100.00;98868.80;1472589;88;21375;-79
2023/08/06 04:28:54;;;;;;;1.85;1.30;;;;;;;20.41;100.00;98875.19;1477227;88;21603;-79
2023/08/06 04:31:23;;;;;;;2.15;1.52;;;;;;;20.34;100.00;98884.78;1479428;88;22307;-81
2023/08/06 04:33:49;;;;;;;3.67;2.05;;;;;;;20.31;100.00;98881.75;1476410;88;21597;-81
2023/08/06 04:36:15;;;;;;;1.80;1.57;;;;;;;20.28;100.00;98873.16;1460690;88;21412;-81
2023/08/06 04:38:44;;;;;;;1.80;1.62;;;;;;;20.26;100.00;98863.17;1469237;88;21368;-80
2023/08/06 04:41:09;;;;;;;1.82;1.40;;;;;;;20.24;100.00;98853.20;1470669;87;21618;-81
2023/08/06 04:43:35;;;;;;;1.50;1.10;;;;;;;20.19;100.00;98846.41;1479930;88;21383;-80
2023/08/06 04:46:02;;;;;;;4.08;1.35;;;;;;;20.21;100.00;98853.70;1476731;88;21570;-81
2023/08/06 04:48:28;;;;;;;1.92;1.27;;;;;;;20.27;100.00;98867.48;1477354;88;21361;-79
2023/08/06 04:50:54;;;;;;;4.28;1.40;;;;;;;20.36;100.00;98887.20;1471370;87;22189;-80
2023/08/06 04:53:20;;;;;;;4.78;1.35;;;;;;;20.40;100.00;98896.37;1471222;87;21534;-79
2023/08/06 04:55:47;;;;;;;1.98;1.27;;;;;;;20.37;100.00;98892.34;1478252;88;21414;-81
2023/08/06 04:58:14;;;;;;;4.40;2.08;;;;;;;20.12;100.00;98898.17;1466675;88;21561;-82
2023/08/06 05:00:40;;;;;;;4.10;1.98;;;;;;;20.12;100.00;98898.17;1468518;88;21463;-81
2023/08/06 05:03:06;;;;;;;5.80;3.17;;;;;;;20.01;100.00;98905.79;1469559;87;21493;-80
2023/08/06 05:05:33;;;;;;;4.97;2.75;;;;;;;19.99;100.00;98924.02;1477342;87;21575;-80
2023/08/06 05:07:59;;;;;;;1.98;1.55;;;;;;;19.96;100.00;98933.37;1468669;88;21359;-80
2023/08/06 05:10:26;;;;;;;2.98;1.77;;;;;;;19.93;100.00;98935.73;1473728;87;21545;-80
2023/08/06 05:12:53;;;;;;;4.87;1.52;;;;;;;19.86;100.00;98923.02;1483360;87;21309;-80
2023/08/06 05:15:19;;;;;;;5.40;2.22;;;;;;;19.82;100.00;98911.44;1471939;88;22292;-79
2023/08/06 05:17:45;;;;;;;5.85;1.75;;;;;;;19.82;100.00;98903.37;1475910;88;21368;-82
2023/08/06 05:20:12;;;;;;;1.95;1.60;;;;;;;19.79;100.00;98898.50;1474960;88;21567;-80
2023/08/06 05:22:38;;;;;;;1.92;1.40;;;;;;;19.77;100.00;98895.23;1459762;88;21635;-81
2023/08/06 05:25:06;;;;;;;2.75;1.10;;;;;;;19.79;100.00;98884.24;1480561;88;22839;-81
2023/08/06 05:27:32;;;;;;;2.65;1.40;;;;;;;19.87;100.00;98881.69;1472842;87;21534;-81
2023/08/06 05:29:58;;;;;;;1.62;1.15;;;;;;;19.85;100.00;98875.20;1467825;87;21554;-83
2023/08/06 05:32:25;;;;;;;3.00;0.88;;;;;;;19.89;100.00;98867.50;1462994;88;21353;-81
2023/08/06 05:34:51;;;;;;;2.58;1.32;;;;;;;19.87;100.00;98864.23;1471512;87;21330;-82
2023/08/06 05:37:17;;;;;;;3.95;1.40;;;;;;;19.88;100.00;98864.51;1482632;87;21308;-84
2023/08/06 05:39:44;;;;;;;1.25;1.07;;;;;;;19.91;100.00;98861.33;1478850;87;21323;-81
2023/08/06 05:42:10;;;;;;;1.22;1.10;;;;;;;19.93;100.00;98853.84;1475377;87;21806;-83
2023/08/06 05:44:36;;;;;;;2.98;1.50;;;;;;;19.94;100.00;98850.09;1469989;88;21427;-83
2023/08/06 05:47:03;;;;;;;1.90;1.05;;;;;;;19.98;100.00;98839.16;1466519;87;21405;-83
2023/08/06 05:49:29;;;;;;;1.85;1.40;;;;;;;20.02;100.00;98835.74;1480554;87;21345;-83
2023/08/06 05:51:56;;;;;;;2.20;1.10;;;;;;;20.06;100.00;98828.00;1462105;88;21361;-83
2023/08/06 05:54:22;;;;;;;5.75;1.20;;;;;;;20.14;100.00;98837.48;1474212;87;21486;-84
2023/08/06 05:56:48;;;;;;;2.95;1.15;;;;;;;20.19;100.00;98843.73;1468813;88;22196;-84
2023/08/06 05:59:15;;;;;;;2.45;1.00;;;;;;;20.26;100.00;98860.49;1469012;87;21397;-83
2023/08/06 06:01:41;;;;;;;1.90;1.20;;;;;;;20.26;100.00;98860.49;1469853;88;21553;-83
2023/08/06 06:04:07;;;;;;;1.77;1.07;;;;;;;20.27;100.00;98854.58;1468076;88;21391;-83
2023/08/06 06:06:33;;;;;;;1.77;1.40;;;;;;;20.33;100.00;98850.09;1479443;87;21434;-83
2023/08/06 06:09:00;;;;;;;2.00;1.00;;;;;;;20.37;100.00;98839.95;1471557;88;21360;-83
2023/08/06 06:11:26;;;;;;;3.30;1.20;;;;;;;20.43;100.00;98838.14;1439783;88;21352;-83
2023/08/06 06:13:52;;;;;;;2.20;1.40;;;;;;;20.39;100.00;98829.74;1462579;88;21337;-82
2023/08/06 06:16:18;;;;;;;2.42;1.47;;;;;;;20.43;100.00;98824.70;1477788;87;21390;-82
2023/08/06 06:18:45;;;;;;;1.82;1.12;;;;;;;20.45;100.00;98838.14;1459263;88;22254;-83
2023/08/06 06:21:11;;;;;;;1.32;1.22;;;;;;;20.44;100.00;98835.72;1470376;87;22165;-83
2023/08/06 06:23:37;;;;;;;2.75;1.17;;;;;;;20.47;100.00;98850.80;1461504;88;21390;-83
2023/08/06 06:26:03;;;;;;;1.98;1.42;;;;;;;20.46;100.00;98846.50;1477073;87;21464;-82
2023/08/06 06:28:30;;;;;;;1.27;1.07;;;;;;;20.41;100.00;98843.75;1465445;88;22130;-84
2023/08/06 06:31:01;;;;;;;4.22;1.20;;;;;;;20.35;100.00;98862.75;1468311;88;22565;-83
2023/08/06 06:33:27;;;;;;;1.42;1.30;;;;;;;20.31;100.00;98879.06;1472738;87;21272;-82
2023/08/06 06:35:54;;;;;;;7.40;1.50;;;;;;;20.26;100.00;98883.33;1478754;87;21552;-82
2023/08/06 06:38:20;;;;;;;1.42;1.25;;;;;;;20.22;100.00;98891.58;1473383;87;21354;-82
2023/08/06 06:40:58;;;;;;;1.52;1.27;;;;;;;20.23;100.00;98913.38;1476143;87;22352;-84
2023/08/06 06:43:25;;;;;;;2.17;1.30;;;;;;;20.24;100.00;98916.33;1481338;87;21648;-82
2023/08/06 06:46:01;;;;;;;1.35;1.25;;;;;;;20.27;100.00;98895.69;1483323;87;21338;-82
2023/08/06 06:48:29;;;;;;;0.95;0.95;;;;;;;20.27;100.00;98895.69;1475395;88;22151;-82
2023/08/06 06:50:56;;;;;;;0.95;0.90;;;;;;;20.26;100.00;98894.61;1480225;88;21480;-82
2023/08/06 06:53:28;;;;;;;3.72;1.37;;;;;;;20.24;100.00;98878.72;1471284;87;21589;-83
2023/08/06 06:55:56;;;;;;;1.45;1.10;;;;;;;20.14;100.00;98865.17;1475087;87;22433;-85
2023/08/06 06:58:22;;;;;;;2.00;1.45;;;;;;;20.26;100.00;98869.89;1469833;87;21524;-81
2023/08/06 07:00:49;;;;;;;4.10;1.12;;;;;;;20.26;100.00;98869.89;1478838;87;21442;-82
2023/08/06 07:03:15;;;;;;;1.45;1.12;;;;;;;20.33;100.00;98862.17;1473956;87;21597;-81
2023/08/06 07:05:44;;;;;;;2.45;1.05;;;;;;;20.39;100.00;98844.52;1463639;88;21433;-82
2023/08/06 07:08:10;;;;;;;1.90;1.17;;;;;;;20.48;100.00;98838.17;1465602;88;21546;-82
2023/08/06 07:10:37;;;;;;;3.17;1.10;;;;;;;20.56;100.00;98831.05;1479991;88;21309;-84
2023/08/06 07:13:03;;;;;;;1.95;1.25;;;;;;;20.64;100.00;98836.52;1472750;88;21515;-84
2023/08/06 07:15:30;;;;;;;1.77;1.32;;;;;;;20.65;100.00;98832.76;1476476;87;22277;-80
2023/08/06 07:17:56;;;;;;;2.15;1.70;;;;;;;20.68;100.00;98845.16;1470978;88;22388;-81
2023/08/06 07:20:22;;;;;;;2.52;1.30;;;;;;;20.67;100.00;98842.73;1473498;88;21841;-82
2023/08/06 07:22:49;;;;;;;3.72;1.55;;;;;;;20.63;100.00;98837.56;1465774;88;21478;-80
2023/08/06 07:25:16;;;;;;;3.25;1.00;;;;;;;20.60;100.00;98859.06;1459300;88;21374;-79
2023/08/06 07:27:43;;;;;;;1.42;1.32;;;;;;;20.61;100.00;98866.05;1469088;88;21390;-79
2023/08/06 07:30:11;;;;;;;2.65;1.10;;;;;;;20.65;100.00;98868.51;1480845;88;21604;-79
2023/08/06 07:32:37;;;;;;;1.57;1.00;;;;;;;20.67;100.00;98868.27;1472735;88;22418;-79
2023/08/06 07:35:04;;;;;;;1.27;0.88;;;;;;;20.68;100.00;98865.31;1473511;87;21294;-80
2023/08/06 07:37:30;;;;;;;2.62;0.98;;;;;;;20.68;100.00;98859.13;1474153;87;21368;-91
2023/08/06 07:39:56;;;;;;;1.10;1.00;;;;;;;20.68;100.00;98872.03;1467709;87;21324;-92
2023/08/06 07:42:23;;;;;;;2.80;1.60;;;;;;;20.70;100.00;98861.85;1479878;87;21398;-87
2023/08/06 07:44:55;;;;;;;1.00;0.90;;;;;;;20.72;100.00;98866.45;1470242;87;21398;-89
2023/08/06 07:47:25;;;;;;;6.03;1.25;;;;;;;20.76;100.00;98870.78;1473473;87;21339;-90
2023/08/06 07:49:51;;;;;;;0.93;0.80;;;;;;;20.77;100.00;98864.33;1477284;88;21390;-91
2023/08/06 07:52:17;;;;;;;1.40;1.07;;;;;;;20.80;100.00;98859.83;1474801;87;21376;-93
2023/08/06 07:54:44;;;;;;;3.10;0.78;;;;;;;20.84;100.00;98853.41;1474407;88;21527;-89
2023/08/06 07:57:11;;;;;;;1.70;1.15;;;;;;;20.94;100.00;98854.84;1465721;87;21608;-91
2023/08/06 07:59:37;;;;;;;1.40;1.30;;;;;;;20.95;100.00;98863.20;1468059;87;21419;-93
2023/08/06 08:02:04;;;;;;;1.75;1.20;;;;;;;20.90;100.00;98855.08;1470770;87;21546;-90
2023/08/06 08:04:30;;;;;;;2.40;1.15;;;;;;;20.94;100.00;98846.77;1473865;88;21456;-93
2023/08/06 08:06:56;;;;;;;2.20;0.78;;;;;;;21.02;100.00;98850.89;1476190;87;21361;-90
2023/08/06 08:09:23;;;;;;;3.77;1.32;;;;;;;21.12;100.00;98850.46;1468736;88;21406;-88
2023/08/06 08:11:50;;;;;;;1.40;0.95;;;;;;;21.26;100.00;98850.03;1471759;87;22365;-92
2023/08/06 08:14:16;;;;;;;2.52;1.62;;;;;;;21.39;100.00;98860.41;1467019;88;21420;-89
2023/08/06 08:16:43;;;;;;;2.05;1.00;;;;;;;21.40;100.00;98867.41;1474564;88;21383;-91
2023/08/06 08:19:09;;;;;;;0.80;0.80;;;;;;;21.37;100.00;98858.50;1474155;87;21382;-91
2023/08/06 08:21:35;;;;;;;1.60;0.88;;;;;;;21.33;100.00;98860.87;1448747;88;21782;-88
2023/08/06 08:24:03;;;;;;;1.50;0.85;;;;;;;21.29;100.00;98857.59;1473363;87;21374;-89
2023/08/06 08:26:29;;;;;;;1.00;1.00;;;;;;;21.29;100.00;98869.69;1408544;88;21523;-89
2023/08/06 08:28:56;;;;;;;1.30;0.88;;;;;;;21.28;100.00;98860.01;1553226;88;21338;-91
2023/08/06 08:31:23;;;;;;;2.17;0.90;;;;;;;21.27;100.00;98857.05;1396798;87;21280;-90
2023/08/06 08:33:49;;;;;;;1.15;0.80;;;;;;;21.29;100.00;98856.23;1397388;87;21355;-89
2023/08/06 08:36:15;;;;;;;1.35;0.90;;;;;;;21.34;100.00;98853.59;1397392;87;22035;-91
2023/08/06 08:38:42;;;;;;;1.60;1.00;;;;;;;21.40;100.00;98857.98;1391836;89;22079;-90
2023/08/06 08:41:11;;;;;;;0.90;0.80;;;;;;;21.42;100.00;98854.51;1398077;87;21413;-92
2023/08/06 08:43:37;;;;;;;1.67;0.90;;;;;;;21.39;100.00;98854.48;1450725;87;21478;-92
2023/08/06 08:46:05;;;;;;;0.80;0.80;;;;;;;21.33;100.00;98854.68;1468348;87;22369;-90
2023/08/06 08:48:32;;;;;;;0.70;0.70;;;;;;;21.25;100.00;98851.10;1472982;87;21375;-88
2023/08/06 08:50:59;;;;;;;0.65;0.62;;;;;;;21.17;100.00;98846.45;1467652;88;21527;-93
2023/08/06 08:53:26;;;;;;;0.70;0.70;;;;;;;21.14;100.00;98846.16;1466846;88;22292;-91
2023/08/06 08:55:54;;;;;;;2.17;0.85;;;;;;;21.07;100.00;98838.30;1474387;88;21493;-92
2023/08/06 08:58:20;;;;;;;1.02;0.93;;;;;;;21.06;100.00;98840.73;1476876;88;22248;-91
2023/08/06 09:00:50;;;;;;;0.60;0.60;;;;;;;21.03;100.00;98838.55;1466102;88;22382;-90
2023/08/06 09:03:17;;;;;;;0.65;0.60;;;;;;;21.00;100.00;98839.03;1399865;87;21243;-91
2023/08/06 09:05:48;;;;;;;1.40;1.10;;;;;;;21.07;100.00;98843.69;1507951;87;21234;-91
2023/08/06 09:08:20;;;;;;;1.70;1.12;;;;;;;21.11;100.00;98838.06;1399189;87;21472;-90
2023/08/06 09:10:52;;;;;;;1.95;0.90;;;;;;;21.20;100.00;98839.75;1557977;87;21508;-88
2023/08/06 09:13:20;;;;;;;0.95;0.90;;;;;;;21.27;100.00;98842.25;1557721;87;21199;-88
2023/08/06 09:15:46;;;;;;;2.90;0.80;;;;;;;21.34;100.00;98833.42;1396254;87;21243;-88
2023/08/06 09:18:13;;;;;;;0.95;0.88;;;;;;;21.43;100.00;98832.44;1397705;87;22209;-93
2023/08/06 09:20:39;;;;;;;1.35;0.93;;;;;;;21.59;100.00;98828.27;1398227;87;21199;-89
2023/08/06 09:23:09;;;;;;;0.75;0.70;;;;;;;21.65;100.00;98822.38;1396793;87;22020;-88
2023/08/06 09:25:43;;;;;;;3.50;0.82;;;;;;;21.68;100.00;98829.13;1509679;89;21406;-91
2023/08/06 09:28:11;;;;;;;0.80;0.80;;;;;;;21.74;100.00;98827.55;1558142;87;21213;-90
2023/08/06 09:30:38;;;;;;;0.85;0.68;;;;;;;21.79;100.00;98826.25;1550269;88;21257;-90
2023/08/06 09:33:15;;;;;;;0.80;0.80;;;;;;;21.77;100.00;98835.11;1397665;87;21287;-91
2023/08/06 09:35:40;;;;;;;1.62;0.90;;;;;;;21.68;100.00;98834.52;1557407;87;22166;-92
2023/08/06 09:38:10;;;;;;;1.77;1.00;;;;;;;21.54;100.00;98834.95;1397323;87;21365;-92
2023/08/06 09:40:38;;;;;;;2.30;0.75;;;;;;;21.46;100.00;98827.34;1393246;88;21243;-92
2023/08/06 09:43:05;;;;;;;1.02;0.80;;;;;;;21.41;100.00;98835.41;1559301;87;21309;-91
2023/08/06 09:45:35;;;;;;;0.90;0.70;;;;;;;21.20;100.00;98831.69;1398329;87;21331;-90
2023/08/06 09:48:09;;;;;;;1.02;0.80;;;;;;;21.04;100.00;98833.44;1394182;87;21215;-90
2023/08/06 09:50:38;;;;;;;1.35;0.70;;;;;;;20.93;100.00;98839.24;1394890;88;22050;-88
2023/08/06 09:53:08;;;;;;;0.55;0.20;;;;;;;20.72;100.00;98840.91;1451753;88;21419;-90
2023/08/06 09:55:34;;;;;;;0.95;0.37;;;;;;;20.58;100.00;98842.91;1476026;87;21368;-90
2023/08/06 09:58:01;;;;;;;0.47;0.20;;;;;;;20.53;100.00;98840.16;1471450;87;21331;-89
2023/08/06 10:00:28;;;;;;;1.12;0.30;;;;;;;20.51;100.00;98841.20;1474606;87;21382;-89
2023/08/06 10:02:57;;;;;;;3.05;0.50;;;;;;;20.62;100.00;98844.82;1475204;88;21540;-91
2023/08/06 10:05:24;;;;;;;0.20;0.20;;;;;;;20.78;100.00;98835.60;1476380;88;22653;-91
2023/08/06 10:07:51;;;;;;;0.30;0.30;;;;;;;21.12;100.00;98834.86;1465740;88;21582;-89
2023/08/06 10:10:19;;;;;;;0.20;0.20;;;;;;;21.44;100.00;98827.36;1475813;88;21345;-92
2023/08/06 10:12:50;;;;;;;0.33;0.33;;;;;;;21.60;100.00;98825.84;1474460;87;21346;-91
2023/08/06 10:15:21;;;;;;;2.58;0.50;;;;;;;21.77;100.00;98819.50;1426125;87;21294;-91
2023/08/06 10:17:50;;;;;;;0.98;0.30;;;;;;;21.91;100.00;98832.78;1472917;87;21412;-89
2023/08/06 10:20:16;;;;;;;5.37;0.82;;;;;;;21.92;100.00;98829.00;1472782;87;22344;-91
2023/08/06 10:22:45;;;;;;;1.22;0.40;;;;;;;21.88;100.00;98825.22;1477574;87;21530;-93
2023/08/06 10:25:18;;;;;;;1.27;0.60;;;;;;;21.85;100.00;98821.70;1460485;88;21361;-91
2023/08/06 10:27:53;;;;;;;0.40;0.40;;;;;;;21.86;100.00;98813.34;1477404;87;21273;-92
2023/08/06 10:30:30;;;;;;;0.80;0.50;;;;;;;21.99;100.00;98818.02;1476270;88;22357;-91
2023/08/06 10:33:02;;;;;;;0.45;0.45;;;;;;;22.08;100.00;98815.90;1475286;87;21309;-90
2023/08/06 10:35:45;;;;;;;2.95;0.50;;;;;;;22.06;100.00;98815.34;1471765;88;21492;-91
2023/08/06 10:38:27;;;;;;;0.50;0.50;;;;;;;21.93;100.00;98817.17;1472534;87;21404;-88
2023/08/06 10:40:59;;;;;;;0.50;0.40;;;;;;;21.89;100.00;98830.88;1559084;87;22161;-94
2023/08/06 10:43:34;;;;;;;1.35;0.70;;;;;;;21.74;100.00;98829.44;1484069;87;21533;-94
2023/08/06 10:46:06;;;;;;;0.55;0.50;;;;;;;21.67;100.00;98816.75;1497460;87;22116;-91
2023/08/06 10:48:43;;;;;;;1.75;0.57;;;;;;;21.66;100.00;98816.45;1396828;89;21428;-88
2023/08/06 10:51:14;;;;;;;2.45;0.75;;;;;;;21.57;100.00;98816.94;1544018;87;21376;-90
2023/08/06 10:53:48;;;;;;;1.62;0.68;;;;;;;21.54;100.00;98816.11;1470038;87;21368;-88
2023/08/06 10:56:25;;;;;;;0.65;0.55;;;;;;;21.56;100.00;98816.67;1471946;87;21354;-92
2023/08/06 10:58:59;;;;;;;0.80;0.70;;;;;;;21.53;100.00;98821.23;1474464;87;22175;-94
2023/08/06 11:01:24;;;;;;;0.98;0.88;;;;;;;21.58;100.00;98815.89;1474179;88;21485;-90
2023/08/06 11:03:53;;;;;;;2.77;0.90;;;;;;;21.66;100.00;98813.77;1475553;87;21449;-90
2023/08/06 11:06:24;;;;;;;1.12;0.82;;;;;;;21.83;100.00;98806.33;1471594;88;21471;-91
2023/08/06 11:08:53;;;;;;;0.88;0.88;;;;;;;22.10;100.00;98806.22;1475869;88;22071;-89
2023/08/06 11:11:23;;;;;;;1.25;1.00;;;;;;;22.32;100.00;98802.02;1560094;87;21457;-89
2023/08/06 11:13:52;;;;;;;1.10;0.95;;;;;;;22.59;100.00;98802.39;1486551;87;21464;-90
2023/08/06 11:16:25;;;;;;;0.95;0.88;;;;;;;22.85;100.00;98793.27;1398664;87;21272;-89
2023/08/06 11:18:52;;;;;;;1.77;1.20;;;;;;;22.94;100.00;98801.09;1390447;89;21265;-92
2023/08/06 11:21:22;;;;;;;3.33;1.20;;;;;;;22.91;100.00;98796.23;1396813;87;21310;-90
2023/08/06 11:23:49;;;;;;;1.35;1.20;;;;;;;22.80;100.00;98793.26;1559150;87;21464;-91
2023/08/06 11:26:23;;;;;;;1.70;1.55;;;;;;;22.66;100.00;98796.19;1397670;87;21443;-85
2023/08/06 11:28:50;;;;;;;3.15;1.98;;;;;;;22.41;100.00;98811.23;1395655;87;22280;-89
2023/08/06 11:31:24;;;;;;;3.87;2.40;;;;;;;22.16;100.00;98807.06;1397227;88;21273;-91
2023/08/06 11:33:51;;;;;;;2.27;2.08;;;;;;;21.91;100.00;98815.27;1500533;87;22255;-88
2023/08/06 11:36:30;;;;;;;5.33;1.72;;;;;;;21.67;100.00;98805.98;1470513;87;21354;-89